sensor_id;sensor_type;location;lat;lon;timestamp;temperature;humidity
2543;DHT22;1116;51.502;7.414;2022-10-12T16:16:17;16.20;12.80
2543;DHT22;1116;51.502;7.414;2022-10-12T16:18:48;16.30;2.70
2543;DHT22;1116;51.502;7.414;2022-10-12T16:21:20;16.20;3.10
2543;DHT22;1116;51.502;7.414;2022-10-12T16:23:54;16.00;2.70
2543;DHT22;1116;51.502;7.414;2022-10-12T16:26:25;16.00;4.10
2543;DHT22;1116;51.502;7.414;2022-10-12T16:28:59;15.80;4.90
2543;DHT22;1116;51.502;7.414;2022-10-12T16:31:32;15.70;6.00
2543;DHT22;1116;51.502;7.414;2022-10-12T16:34:03;15.70;5.70
2543;DHT22;1116;51.502;7.414;2022-10-12T16:36:34;15.50;6.90
2543;DHT22;1116;51.502;7.414;2022-10-12T16:39:05;15.30;8.20
2543;DHT22;1116;51.502;7.414;2022-10-12T16:41:36;15.20;9.10
2543;DHT22;1116;51.502;7.414;2022-10-12T16:44:07;15.20;9.10
2543;DHT22;1116;51.502;7.414;2022-10-12T16:46:42;15.10;9.60
2543;DHT22;1116;51.502;7.414;2022-10-12T16:49:13;15.00;10.50
2543;DHT22;1116;51.502;7.414;2022-10-12T16:51:46;14.90;10.90
2543;DHT22;1116;51.502;7.414;2022-10-12T16:54:17;14.90;11.10
2543;DHT22;1116;51.502;7.414;2022-10-12T16:56:48;14.90;11.30
2543;DHT22;1116;51.502;7.414;2022-10-12T16:59:19;14.80;10.90
2543;DHT22;1116;51.502;7.414;2022-10-12T17:01:53;14.70;10.00
2543;DHT22;1116;51.502;7.414;2022-10-12T17:04:23;14.60;12.30
2543;DHT22;1116;51.502;7.414;2022-10-12T17:06:54;14.90;12.90
2543;DHT22;1116;51.502;7.414;2022-10-12T17:09:25;14.70;13.90
2543;DHT22;1116;51.502;7.414;2022-10-12T17:11:58;14.20;13.70
2543;DHT22;1116;51.502;7.414;2022-10-12T17:14:28;14.30;14.80
2543;DHT22;1116;51.502;7.414;2022-10-12T17:17:02;14.30;14.30
2543;DHT22;1116;51.502;7.414;2022-10-12T17:19:35;14.20;15.00
2543;DHT22;1116;51.502;7.414;2022-10-12T17:22:10;14.10;15.40
2543;DHT22;1116;51.502;7.414;2022-10-12T17:24:42;14.10;15.10
2543;DHT22;1116;51.502;7.414;2022-10-12T17:27:13;14.10;15.70
2543;DHT22;1116;51.502;7.414;2022-10-12T17:29:44;14.00;16.10
2543;DHT22;1116;51.502;7.414;2022-10-12T17:32:18;13.90;16.30
2543;DHT22;1116;51.502;7.414;2022-10-12T17:34:48;13.80;16.50
2543;DHT22;1116;51.502;7.414;2022-10-12T17:37:19;13.80;16.80
2543;DHT22;1116;51.502;7.414;2022-10-12T17:39:54;13.60;17.00
2543;DHT22;1116;51.502;7.414;2022-10-12T17:42:25;13.80;17.30
2543;DHT22;1116;51.502;7.414;2022-10-12T17:44:57;13.50;17.30
2543;DHT22;1116;51.502;7.414;2022-10-12T17:47:31;13.40;17.60
2543;DHT22;1116;51.502;7.414;2022-10-12T17:50:03;13.30;17.80
2543;DHT22;1116;51.502;7.414;2022-10-12T17:52:36;13.30;18.50
2543;DHT22;1116;51.502;7.414;2022-10-12T17:55:18;13.20;18.90
2543;DHT22;1116;51.502;7.414;2022-10-12T17:58:09;13.10;19.10
2543;DHT22;1116;51.502;7.414;2022-10-12T18:00:40;13.00;19.80
2543;DHT22;1116;51.502;7.414;2022-10-12T18:03:13;13.00;20.20
2543;DHT22;1116;51.502;7.414;2022-10-12T18:05:50;12.90;19.90
2543;DHT22;1116;51.502;7.414;2022-10-12T18:08:21;12.90;21.30
2543;DHT22;1116;51.502;7.414;2022-10-12T18:10:53;12.80;20.40
2543;DHT22;1116;51.502;7.414;2022-10-12T18:13:26;12.80;21.50
2543;DHT22;1116;51.502;7.414;2022-10-12T18:15:58;12.70;21.10
2543;DHT22;1116;51.502;7.414;2022-10-12T18:18:31;12.80;22.30
2543;DHT22;1116;51.502;7.414;2022-10-12T18:21:04;12.60;21.70
2543;DHT22;1116;51.502;7.414;2022-10-12T18:23:36;12.60;21.60
2543;DHT22;1116;51.502;7.414;2022-10-12T18:26:09;12.40;21.90
2543;DHT22;1116;51.502;7.414;2022-10-12T18:28:40;12.40;22.00
2543;DHT22;1116;51.502;7.414;2022-10-12T18:31:15;12.40;21.80
2543;DHT22;1116;51.502;7.414;2022-10-12T18:33:50;12.40;23.90
2543;DHT22;1116;51.502;7.414;2022-10-12T18:36:21;12.30;22.70
2543;DHT22;1116;51.502;7.414;2022-10-12T18:38:54;12.20;22.70
2543;DHT22;1116;51.502;7.414;2022-10-12T18:41:26;12.10;23.60
2543;DHT22;1116;51.502;7.414;2022-10-12T18:43:59;12.10;24.00
2543;DHT22;1116;51.502;7.414;2022-10-12T18:46:32;12.00;23.20
2543;DHT22;1116;51.502;7.414;2022-10-12T18:49:07;12.00;23.40
2543;DHT22;1116;51.502;7.414;2022-10-12T18:51:40;11.90;24.40
2543;DHT22;1116;51.502;7.414;2022-10-12T18:54:15;11.80;23.90
2543;DHT22;1116;51.502;7.414;2022-10-12T18:56:46;11.80;23.20
2543;DHT22;1116;51.502;7.414;2022-10-12T18:59:17;11.80;23.50
2543;DHT22;1116;51.502;7.414;2022-10-12T19:01:50;11.70;24.20
2543;DHT22;1116;51.502;7.414;2022-10-12T19:04:30;11.60;23.50
2543;DHT22;1116;51.502;7.414;2022-10-12T19:07:01;11.60;23.20
2543;DHT22;1116;51.502;7.414;2022-10-12T19:09:32;11.60;24.20
2543;DHT22;1116;51.502;7.414;2022-10-12T19:12:05;11.40;23.60
2543;DHT22;1116;51.502;7.414;2022-10-12T19:14:39;11.40;24.00
2543;DHT22;1116;51.502;7.414;2022-10-12T19:17:09;11.30;24.00
2543;DHT22;1116;51.502;7.414;2022-10-12T19:19:43;11.30;24.00
2543;DHT22;1116;51.502;7.414;2022-10-12T19:22:14;11.20;24.30
2543;DHT22;1116;51.502;7.414;2022-10-12T19:24:46;11.20;23.90
2543;DHT22;1116;51.502;7.414;2022-10-12T19:27:16;11.10;23.90
2543;DHT22;1116;51.502;7.414;2022-10-12T19:29:50;11.00;23.80
2543;DHT22;1116;51.502;7.414;2022-10-12T19:32:21;11.00;24.50
2543;DHT22;1116;51.502;7.414;2022-10-12T19:34:54;11.00;26.10
2543;DHT22;1116;51.502;7.414;2022-10-12T19:37:27;11.20;25.60
2543;DHT22;1116;51.502;7.414;2022-10-12T19:39:58;10.90;24.80
2543;DHT22;1116;51.502;7.414;2022-10-12T19:42:34;10.90;24.80
2543;DHT22;1116;51.502;7.414;2022-10-12T19:45:06;10.80;25.60
2543;DHT22;1116;51.502;7.414;2022-10-12T19:47:37;10.80;26.10
2543;DHT22;1116;51.502;7.414;2022-10-12T19:50:11;10.80;25.70
2543;DHT22;1116;51.502;7.414;2022-10-12T19:52:44;10.70;25.70
2543;DHT22;1116;51.502;7.414;2022-10-12T19:55:15;10.70;25.80
2543;DHT22;1116;51.502;7.414;2022-10-12T19:57:46;10.80;27.40
2543;DHT22;1116;51.502;7.414;2022-10-12T20:00:18;10.60;25.40
2543;DHT22;1116;51.502;7.414;2022-10-12T20:02:49;10.50;26.10
2543;DHT22;1116;51.502;7.414;2022-10-12T20:05:22;10.50;26.70
2543;DHT22;1116;51.502;7.414;2022-10-12T20:07:53;10.50;26.40
2543;DHT22;1116;51.502;7.414;2022-10-12T20:10:24;10.50;26.30
2543;DHT22;1116;51.502;7.414;2022-10-12T20:12:56;10.40;27.10
2543;DHT22;1116;51.502;7.414;2022-10-12T20:15:28;10.40;26.60
2543;DHT22;1116;51.502;7.414;2022-10-12T20:17:59;10.40;27.70
2543;DHT22;1116;51.502;7.414;2022-10-12T20:20:33;10.30;26.70
2543;DHT22;1116;51.502;7.414;2022-10-12T20:23:04;10.30;27.50
2543;DHT22;1116;51.502;7.414;2022-10-12T20:25:40;10.30;27.50
2543;DHT22;1116;51.502;7.414;2022-10-12T20:28:13;10.30;26.90
2543;DHT22;1116;51.502;7.414;2022-10-12T20:30:45;10.30;27.30
2543;DHT22;1116;51.502;7.414;2022-10-12T20:33:16;10.20;28.60
2543;DHT22;1116;51.502;7.414;2022-10-12T20:35:51;10.30;28.70
2543;DHT22;1116;51.502;7.414;2022-10-12T20:38:24;10.30;28.90
2543;DHT22;1116;51.502;7.414;2022-10-12T20:41:01;10.30;29.70
2543;DHT22;1116;51.502;7.414;2022-10-12T20:43:33;10.10;30.20
2543;DHT22;1116;51.502;7.414;2022-10-12T20:46:07;10.20;29.40
2543;DHT22;1116;51.502;7.414;2022-10-12T20:48:39;10.30;30.50
2543;DHT22;1116;51.502;7.414;2022-10-12T20:51:18;10.30;31.30
2543;DHT22;1116;51.502;7.414;2022-10-12T20:53:50;10.20;29.80
2543;DHT22;1116;51.502;7.414;2022-10-12T20:56:21;10.20;29.40
2543;DHT22;1116;51.502;7.414;2022-10-12T20:58:57;10.20;29.00
2543;DHT22;1116;51.502;7.414;2022-10-12T21:01:28;10.10;29.50
2543;DHT22;1116;51.502;7.414;2022-10-12T21:03:59;10.10;29.90
2543;DHT22;1116;51.502;7.414;2022-10-12T21:06:35;10.10;29.90
2543;DHT22;1116;51.502;7.414;2022-10-12T21:09:11;10.00;30.60
2543;DHT22;1116;51.502;7.414;2022-10-12T21:11:45;10.00;31.70
2543;DHT22;1116;51.502;7.414;2022-10-12T21:14:20;10.00;31.80
2543;DHT22;1116;51.502;7.414;2022-10-12T21:16:53;9.40;32.30
2543;DHT22;1116;51.502;7.414;2022-10-12T21:19:24;10.30;32.00
2543;DHT22;1116;51.502;7.414;2022-10-12T21:21:57;9.90;34.80
2543;DHT22;1116;51.502;7.414;2022-10-12T21:24:32;9.90;38.70
2543;DHT22;1116;51.502;7.414;2022-10-12T21:27:03;10.20;59.50
2543;DHT22;1116;51.502;7.414;2022-10-12T21:29:35;9.90;59.30
2543;DHT22;1116;51.502;7.414;2022-10-12T21:32:06;9.90;85.60
2543;DHT22;1116;51.502;7.414;2022-10-12T21:34:37;10.10;99.90
2543;DHT22;1116;51.502;7.414;2022-10-12T21:37:10;10.10;89.00
2543;DHT22;1116;51.502;7.414;2022-10-12T21:39:41;10.10;99.30
2543;DHT22;1116;51.502;7.414;2022-10-12T21:42:17;10.10;96.90
2543;DHT22;1116;51.502;7.414;2022-10-12T21:44:48;10.10;99.90
2543;DHT22;1116;51.502;7.414;2022-10-12T21:47:19;10.10;99.90
2543;DHT22;1116;51.502;7.414;2022-10-12T21:49:49;10.20;99.90
2543;DHT22;1116;51.502;7.414;2022-10-12T21:52:23;10.20;99.90
2543;DHT22;1116;51.502;7.414;2022-10-12T21:54:53;10.20;99.90
2543;DHT22;1116;51.502;7.414;2022-10-12T21:57:26;10.20;99.90
2543;DHT22;1116;51.502;7.414;2022-10-12T21:59:57;10.20;99.90
2543;DHT22;1116;51.502;7.414;2022-10-12T22:02:28;10.20;99.90
2543;DHT22;1116;51.502;7.414;2022-10-12T22:04:59;10.10;99.90
2543;DHT22;1116;51.502;7.414;2022-10-12T22:07:32;10.30;99.90
2543;DHT22;1116;51.502;7.414;2022-10-12T22:10:05;10.30;99.90
2543;DHT22;1116;51.502;7.414;2022-10-12T22:12:36;10.20;99.90
2543;DHT22;1116;51.502;7.414;2022-10-12T22:15:08;10.30;99.90
2543;DHT22;1116;51.502;7.414;2022-10-12T22:17:39;10.20;99.90
2543;DHT22;1116;51.502;7.414;2022-10-12T22:20:10;10.30;99.90
2543;DHT22;1116;51.502;7.414;2022-10-12T22:22:44;10.20;99.90
2543;DHT22;1116;51.502;7.414;2022-10-12T22:25:15;10.20;99.90
2543;DHT22;1116;51.502;7.414;2022-10-12T22:27:45;10.20;99.90
2543;DHT22;1116;51.502;7.414;2022-10-12T22:30:17;10.20;99.90
2543;DHT22;1116;51.502;7.414;2022-10-12T22:32:47;10.10;99.90
2543;DHT22;1116;51.502;7.414;2022-10-12T22:35:19;10.10;99.90
2543;DHT22;1116;51.502;7.414;2022-10-12T22:37:53;10.00;98.40
2543;DHT22;1116;51.502;7.414;2022-10-12T22:40:25;10.10;99.90
2543;DHT22;1116;51.502;7.414;2022-10-12T22:42:56;10.10;99.90
2543;DHT22;1116;51.502;7.414;2022-10-12T22:45:26;10.10;99.90
2543;DHT22;1116;51.502;7.414;2022-10-12T22:47:57;10.10;99.90
2543;DHT22;1116;51.502;7.414;2022-10-12T22:50:28;10.10;99.90
2543;DHT22;1116;51.502;7.414;2022-10-12T22:53:01;10.00;99.90
2543;DHT22;1116;51.502;7.414;2022-10-12T22:55:32;10.00;99.80
2543;DHT22;1116;51.502;7.414;2022-10-12T22:58:04;10.00;99.90
2543;DHT22;1116;51.502;7.414;2022-10-12T23:00:35;10.00;99.90
2543;DHT22;1116;51.502;7.414;2022-10-12T23:03:06;10.00;99.90
2543;DHT22;1116;51.502;7.414;2022-10-12T23:05:38;10.10;99.90
2543;DHT22;1116;51.502;7.414;2022-10-12T23:08:11;10.20;99.90
2543;DHT22;1116;51.502;7.414;2022-10-12T23:10:43;10.30;99.90
2543;DHT22;1116;51.502;7.414;2022-10-12T23:13:14;10.40;99.90
2543;DHT22;1116;51.502;7.414;2022-10-12T23:15:44;10.50;99.90
2543;DHT22;1116;51.502;7.414;2022-10-12T23:18:15;10.60;99.90
2543;DHT22;1116;51.502;7.414;2022-10-12T23:20:46;10.60;99.90
2543;DHT22;1116;51.502;7.414;2022-10-12T23:23:19;10.70;99.90
2543;DHT22;1116;51.502;7.414;2022-10-12T23:25:57;10.80;99.90
2543;DHT22;1116;51.502;7.414;2022-10-12T23:28:28;10.80;99.90
2543;DHT22;1116;51.502;7.414;2022-10-12T23:31:13;10.90;99.90
2543;DHT22;1116;51.502;7.414;2022-10-12T23:33:44;11.00;99.90
2543;DHT22;1116;51.502;7.414;2022-10-12T23:36:16;11.10;99.90
2543;DHT22;1116;51.502;7.414;2022-10-12T23:38:49;11.20;99.90
2543;DHT22;1116;51.502;7.414;2022-10-12T23:41:21;11.30;99.90
2543;DHT22;1116;51.502;7.414;2022-10-12T23:43:52;11.30;99.90
2543;DHT22;1116;51.502;7.414;2022-10-12T23:46:23;11.40;99.90
2543;DHT22;1116;51.502;7.414;2022-10-12T23:48:54;11.40;99.90
2543;DHT22;1116;51.502;7.414;2022-10-12T23:51:24;11.40;99.90
2543;DHT22;1116;51.502;7.414;2022-10-12T23:53:58;11.50;99.90
2543;DHT22;1116;51.502;7.414;2022-10-12T23:56:29;11.60;99.90
2543;DHT22;1116;51.502;7.414;2022-10-12T23:59:00;11.60;99.90
